Archival Weather

Snohomish County (Paine Fld)

Everett, Washington (KPAE)

Report from: Wednesday, November 22, 2023 3:53 PM PST
Current time: Monday, June 17, 2024 12:11 AM PDT

Current weather – Weather history – Daily summaries
Weather forecast

Temperature7.8°C (46.0°F)
Wind chill6.6°C (43.8°F)
Dew point2.8°C (37.0°F)
Winds 4 kts (2.1 m/s, 4.6 mph) North (350°)
Visibility10 mi. (16.1 km)
Clouds Sky clear
Altimeter30.40 in.Hg (1029 mB)
Relative humidity71 %
Density altitude-1,306 ft. (-398 m)
Sea-level pressure103.0 kPa (1030 mB, 30.40 in.Hg)
Max temp last 6 hours9.4°C (48.9°F)
Min temp last 6 hours7.8°C (46.0°F)
Remarks Automated weather observing station with precipitation discriminator
Pressure rising more quickly
Flight conditions Visual Meteorological Conditions
Raw dataKPAE 222353Z 35004KT 10SM CLR 08/03 A3040 RMK AO2 SLP296 T00780028 10094 20078 53002
An error has occurred. This application may no longer respond until reloaded. Reload 🗙